sensor_id;sensor_type;location;lat;lon;timestamp;pressure;altitude;pressure_sealevel;temperature;humidity
60061;BME280;45933;51.336;12.612;2023-06-14T00:01:31;99901.09;;;17.09;42.43
60061;BME280;45933;51.336;12.612;2023-06-14T00:03:57;99904.72;;;17.05;42.51
60061;BME280;45933;51.336;12.612;2023-06-14T00:06:22;99897.75;;;17.04;42.39
60061;BME280;45933;51.336;12.612;2023-06-14T00:08:49;99902.25;;;17.00;42.75
60061;BME280;45933;51.336;12.612;2023-06-14T00:11:14;99901.50;;;16.96;42.82
60061;BME280;45933;51.336;12.612;2023-06-14T00:13:39;99901.63;;;16.93;43.04
60061;BME280;45933;51.336;12.612;2023-06-14T00:16:06;99906.19;;;16.88;42.93
60061;BME280;45933;51.336;12.612;2023-06-14T00:18:31;99905.41;;;16.85;42.99
60061;BME280;45933;51.336;12.612;2023-06-14T00:20:56;99906.38;;;16.82;42.98
60061;BME280;45933;51.336;12.612;2023-06-14T00:23:22;99906.56;;;16.76;43.30
60061;BME280;45933;51.336;12.612;2023-06-14T00:25:47;99906.75;;;16.71;43.32
60061;BME280;45933;51.336;12.612;2023-06-14T00:28:12;99903.31;;;16.68;43.59
60061;BME280;45933;51.336;12.612;2023-06-14T00:30:38;99906.16;;;16.62;43.65
60061;BME280;45933;51.336;12.612;2023-06-14T00:33:04;99906.41;;;16.54;43.64
60061;BME280;45933;51.336;12.612;2023-06-14T00:35:29;99909.16;;;16.50;43.56
60061;BME280;45933;51.336;12.612;2023-06-14T00:37:54;99907.59;;;16.44;44.14
60061;BME280;45933;51.336;12.612;2023-06-14T00:40:20;99904.31;;;16.37;44.11
60061;BME280;45933;51.336;12.612;2023-06-14T00:42:46;99909.88;;;16.28;44.32
60061;BME280;45933;51.336;12.612;2023-06-14T00:45:12;99907.44;;;16.22;44.56
60061;BME280;45933;51.336;12.612;2023-06-14T00:47:38;99914.66;;;16.15;44.93
60061;BME280;45933;51.336;12.612;2023-06-14T00:50:07;99914.94;;;16.06;44.79
60061;BME280;45933;51.336;12.612;2023-06-14T00:52:32;99912.50;;;16.00;44.96
60061;BME280;45933;51.336;12.612;2023-06-14T00:54:58;99908.38;;;15.91;45.02
60061;BME280;45933;51.336;12.612;2023-06-14T00:57:24;99912.09;;;15.84;45.19
60061;BME280;45933;51.336;12.612;2023-06-14T00:59:49;99916.56;;;15.81;45.22
60061;BME280;45933;51.336;12.612;2023-06-14T01:02:15;99911.56;;;15.73;45.77
60061;BME280;45933;51.336;12.612;2023-06-14T01:04:41;99909.91;;;15.69;45.62
60061;BME280;45933;51.336;12.612;2023-06-14T01:10:08;99903.00;;;15.66;44.78
60061;BME280;45933;51.336;12.612;2023-06-14T01:13:11;99910.09;;;15.63;44.49
60061;BME280;45933;51.336;12.612;2023-06-14T01:15:39;99910.44;;;15.49;46.17
60061;BME280;45933;51.336;12.612;2023-06-14T01:18:05;99913.31;;;15.41;46.14
60061;BME280;45933;51.336;12.612;2023-06-14T01:20:32;99910.81;;;15.37;46.80
60061;BME280;45933;51.336;12.612;2023-06-14T01:22:58;99917.09;;;15.31;46.80
60061;BME280;45933;51.336;12.612;2023-06-14T01:25:24;99916.31;;;15.28;46.79
60061;BME280;45933;51.336;12.612;2023-06-14T01:27:52;99915.56;;;15.23;47.23
60061;BME280;45933;51.336;12.612;2023-06-14T01:30:20;99916.44;;;15.23;47.01
60061;BME280;45933;51.336;12.612;2023-06-14T01:32:47;99917.47;;;15.17;47.35
60061;BME280;45933;51.336;12.612;2023-06-14T01:35:12;99914.94;;;15.14;47.28
60061;BME280;45933;51.336;12.612;2023-06-14T01:37:38;99910.59;;;15.13;47.08
60061;BME280;45933;51.336;12.612;2023-06-14T01:40:05;99917.72;;;15.08;47.82
60061;BME280;45933;51.336;12.612;2023-06-14T01:42:34;99905.47;;;15.09;47.59
60061;BME280;45933;51.336;12.612;2023-06-14T01:45:00;99911.63;;;15.06;47.61
60061;BME280;45933;51.336;12.612;2023-06-14T01:47:26;99907.38;;;15.02;47.70
60061;BME280;45933;51.336;12.612;2023-06-14T01:49:52;99911.81;;;15.00;47.67
60061;BME280;45933;51.336;12.612;2023-06-14T01:52:17;99911.81;;;15.00;47.60
60061;BME280;45933;51.336;12.612;2023-06-14T01:54:44;99921.56;;;14.95;48.03
60061;BME280;45933;51.336;12.612;2023-06-14T01:57:11;99912.78;;;14.96;48.16
60061;BME280;45933;51.336;12.612;2023-06-14T01:59:36;99909.34;;;14.94;47.98
60061;BME280;45933;51.336;12.612;2023-06-14T02:02:03;99912.13;;;14.88;48.40
60061;BME280;45933;51.336;12.612;2023-06-14T02:04:28;99914.75;;;14.88;47.98
60061;BME280;45933;51.336;12.612;2023-06-14T02:06:53;99913.91;;;14.86;48.11
60061;BME280;45933;51.336;12.612;2023-06-14T02:09:19;99914.94;;;14.82;48.42
60061;BME280;45933;51.336;12.612;2023-06-14T02:11:44;99914.94;;;14.80;48.51
60061;BME280;45933;51.336;12.612;2023-06-14T02:14:10;99911.56;;;14.75;48.48
60061;BME280;45933;51.336;12.612;2023-06-14T02:16:37;99912.47;;;14.74;48.47
60061;BME280;45933;51.336;12.612;2023-06-14T02:19:04;99918.63;;;14.73;48.50
60061;BME280;45933;51.336;12.612;2023-06-14T02:21:29;99918.69;;;14.72;48.67
60061;BME280;45933;51.336;12.612;2023-06-14T02:23:54;99918.75;;;14.69;48.56
60061;BME280;45933;51.336;12.612;2023-06-14T02:26:20;99922.28;;;14.68;48.62
60061;BME280;45933;51.336;12.612;2023-06-14T02:28:45;99924.97;;;14.64;48.45
60061;BME280;45933;51.336;12.612;2023-06-14T02:31:10;99915.47;;;14.59;48.73
60061;BME280;45933;51.336;12.612;2023-06-14T02:33:36;99922.59;;;14.55;48.50
60061;BME280;45933;51.336;12.612;2023-06-14T02:36:01;99925.31;;;14.51;48.92
60061;BME280;45933;51.336;12.612;2023-06-14T02:38:28;99932.41;;;14.46;49.01
60061;BME280;45933;51.336;12.612;2023-06-14T02:40:53;99934.16;;;14.45;49.09
60061;BME280;45933;51.336;12.612;2023-06-14T02:43:19;99934.25;;;14.41;49.51
60061;BME280;45933;51.336;12.612;2023-06-14T02:45:44;99935.22;;;14.36;49.50
60061;BME280;45933;51.336;12.612;2023-06-14T02:48:10;99937.81;;;14.38;49.58
60061;BME280;45933;51.336;12.612;2023-06-14T02:50:36;99934.31;;;14.37;49.60
60061;BME280;45933;51.336;12.612;2023-06-14T02:56:10;99936.91;;;14.39;49.35
60061;BME280;45933;51.336;12.612;2023-06-14T02:58:37;99937.81;;;14.38;49.55
60061;BME280;45933;51.336;12.612;2023-06-14T03:01:02;99936.03;;;14.40;49.81
60061;BME280;45933;51.336;12.612;2023-06-14T03:03:28;99943.06;;;14.38;49.81
60061;BME280;45933;51.336;12.612;2023-06-14T03:05:53;99935.97;;;14.42;49.56
60061;BME280;45933;51.336;12.612;2023-06-14T03:08:19;99935.94;;;14.43;49.80
60061;BME280;45933;51.336;12.612;2023-06-14T03:10:48;99934.16;;;14.44;49.96
60061;BME280;45933;51.336;12.612;2023-06-14T03:13:14;99937.75;;;14.41;49.92
60061;BME280;45933;51.336;12.612;2023-06-14T03:15:41;99941.28;;;14.40;49.86
60061;BME280;45933;51.336;12.612;2023-06-14T03:18:08;99948.28;;;14.38;50.38
60061;BME280;45933;51.336;12.612;2023-06-14T03:20:34;99951.00;;;14.35;50.22
60061;BME280;45933;51.336;12.612;2023-06-14T03:23:01;99945.75;;;14.35;50.41
60061;BME280;45933;51.336;12.612;2023-06-14T03:25:26;99948.38;;;14.35;50.15
60061;BME280;45933;51.336;12.612;2023-06-14T03:27:54;99947.53;;;14.34;50.23
60061;BME280;45933;51.336;12.612;2023-06-14T03:30:20;99950.09;;;14.36;50.77
60061;BME280;45933;51.336;12.612;2023-06-14T03:32:45;99949.25;;;14.35;50.58
60061;BME280;45933;51.336;12.612;2023-06-14T03:35:10;99956.25;;;14.35;50.44
60061;BME280;45933;51.336;12.612;2023-06-14T03:37:42;99967.59;;;14.34;50.74
60061;BME280;45933;51.336;12.612;2023-06-14T03:40:07;99973.75;;;14.33;50.53
60061;BME280;45933;51.336;12.612;2023-06-14T03:42:32;99978.19;;;14.31;50.82
60061;BME280;45933;51.336;12.612;2023-06-14T03:44:58;99971.22;;;14.30;50.74
60061;BME280;45933;51.336;12.612;2023-06-14T03:47:23;99974.75;;;14.27;51.19
60061;BME280;45933;51.336;12.612;2023-06-14T03:49:48;99976.47;;;14.30;50.45
60061;BME280;45933;51.336;12.612;2023-06-14T03:52:13;99974.69;;;14.30;51.08
60061;BME280;45933;51.336;12.612;2023-06-14T03:54:39;99981.66;;;14.31;51.47
60061;BME280;45933;51.336;12.612;2023-06-14T03:57:05;99980.72;;;14.34;51.29
60061;BME280;45933;51.336;12.612;2023-06-14T03:59:31;99981.63;;;14.34;51.63
60061;BME280;45933;51.336;12.612;2023-06-14T04:01:56;99979.81;;;14.36;51.75
60061;BME280;45933;51.336;12.612;2023-06-14T04:04:21;99985.00;;;14.39;51.49
60061;BME280;45933;51.336;12.612;2023-06-14T04:06:47;99992.81;;;14.41;51.65
60061;BME280;45933;51.336;12.612;2023-06-14T04:09:13;99997.16;;;14.42;51.28
60061;BME280;45933;51.336;12.612;2023-06-14T04:11:38;99995.34;;;14.44;51.80
60061;BME280;45933;51.336;12.612;2023-06-14T04:14:03;99997.03;;;14.48;51.34
60061;BME280;45933;51.336;12.612;2023-06-14T04:16:29;99995.28;;;14.49;51.62
60061;BME280;45933;51.336;12.612;2023-06-14T04:18:54;99995.28;;;14.50;51.64
60061;BME280;45933;51.336;12.612;2023-06-14T04:21:20;99994.38;;;14.50;51.70
60061;BME280;45933;51.336;12.612;2023-06-14T04:23:46;99987.31;;;14.53;51.69
60061;BME280;45933;51.336;12.612;2023-06-14T04:26:11;99996.03;;;14.54;51.98
60061;BME280;45933;51.336;12.612;2023-06-14T04:28:36;99990.72;;;14.57;51.75
60061;BME280;45933;51.336;12.612;2023-06-14T04:31:06;99995.94;;;14.58;51.84
60061;BME280;45933;51.336;12.612;2023-06-14T04:33:36;99991.50;;;14.60;51.96
60061;BME280;45933;51.336;12.612;2023-06-14T04:36:09;99991.38;;;14.67;52.10
60061;BME280;45933;51.336;12.612;2023-06-14T04:38:35;99990.38;;;14.72;51.97
60061;BME280;45933;51.336;12.612;2023-06-14T04:41:01;99991.13;;;14.77;51.80
60061;BME280;45933;51.336;12.612;2023-06-14T04:43:27;99992.75;;;14.83;52.10
60061;BME280;45933;51.336;12.612;2023-06-14T04:45:52;99988.16;;;14.91;51.69
60061;BME280;45933;51.336;12.612;2023-06-14T04:48:19;99982.84;;;14.94;52.32
60061;BME280;45933;51.336;12.612;2023-06-14T04:50:45;99987.06;;;15.00;52.02
60061;BME280;45933;51.336;12.612;2023-06-14T04:53:11;99989.53;;;15.06;52.03
60061;BME280;45933;51.336;12.612;2023-06-14T04:55:36;99982.41;;;15.11;52.18
60061;BME280;45933;51.336;12.612;2023-06-14T04:58:02;99981.34;;;15.18;51.90
60061;BME280;45933;51.336;12.612;2023-06-14T05:00:28;99990.00;;;15.22;52.14
60061;BME280;45933;51.336;12.612;2023-06-14T05:02:53;99986.28;;;15.30;51.81
60061;BME280;45933;51.336;12.612;2023-06-14T05:05:18;99988.84;;;15.32;51.93
60061;BME280;45933;51.336;12.612;2023-06-14T05:07:44;99979.94;;;15.37;52.11
60061;BME280;45933;51.336;12.612;2023-06-14T05:10:10;99982.34;;;15.47;51.81
60061;BME280;45933;51.336;12.612;2023-06-14T05:12:36;99984.00;;;15.51;51.57
60061;BME280;45933;51.336;12.612;2023-06-14T05:15:02;99993.47;;;15.55;51.60
60061;BME280;45933;51.336;12.612;2023-06-14T05:17:27;99989.81;;;15.62;51.62
60061;BME280;45933;51.336;12.612;2023-06-14T05:19:53;99997.63;;;15.65;51.57
60061;BME280;45933;51.336;12.612;2023-06-14T05:22:18;99996.56;;;15.72;51.33
60061;BME280;45933;51.336;12.612;2023-06-14T05:24:43;99998.16;;;15.78;51.73
60061;BME280;45933;51.336;12.612;2023-06-14T05:27:09;100002.31;;;15.85;51.50
60061;BME280;45933;51.336;12.612;2023-06-14T05:29:34;99989.09;;;15.88;51.30
60061;BME280;45933;51.336;12.612;2023-06-14T05:31:59;99999.44;;;15.94;51.26
60061;BME280;45933;51.336;12.612;2023-06-14T05:34:25;99994.84;;;16.01;51.24
60061;BME280;45933;51.336;12.612;2023-06-14T05:36:50;99998.28;;;16.04;51.02
60061;BME280;45933;51.336;12.612;2023-06-14T05:39:16;99995.50;;;16.09;50.73
60061;BME280;45933;51.336;12.612;2023-06-14T05:41:42;99999.78;;;16.11;51.13
60061;BME280;45933;51.336;12.612;2023-06-14T05:44:08;100005.72;;;16.18;50.94
60061;BME280;45933;51.336;12.612;2023-06-14T05:46:33;100003.88;;;16.21;50.73
60061;BME280;45933;51.336;12.612;2023-06-14T05:48:59;100004.59;;;16.27;50.47
60061;BME280;45933;51.336;12.612;2023-06-14T05:51:24;100012.25;;;16.34;50.67
60061;BME280;45933;51.336;12.612;2023-06-14T05:53:52;100015.84;;;16.32;51.25
60061;BME280;45933;51.336;12.612;2023-06-14T05:56:18;100015.47;;;16.44;50.58
60061;BME280;45933;51.336;12.612;2023-06-14T05:58:44;100021.44;;;16.51;50.10
60061;BME280;45933;51.336;12.612;2023-06-14T06:01:10;100019.78;;;16.46;50.71
60061;BME280;45933;51.336;12.612;2023-06-14T06:03:35;100025.47;;;16.61;49.80
60061;BME280;45933;51.336;12.612;2023-06-14T06:06:00;100027.09;;;16.65;49.92
60061;BME280;45933;51.336;12.612;2023-06-14T06:08:26;100036.56;;;16.70;50.28
60061;BME280;45933;51.336;12.612;2023-06-14T06:10:52;100039.00;;;16.78;49.88
60061;BME280;45933;51.336;12.612;2023-06-14T06:13:17;100021.25;;;16.85;50.20
60061;BME280;45933;51.336;12.612;2023-06-14T06:15:42;100035.88;;;16.93;49.90
60061;BME280;45933;51.336;12.612;2023-06-14T06:18:07;100030.41;;;16.99;49.84
60061;BME280;45933;51.336;12.612;2023-06-14T06:20:33;100031.19;;;17.03;49.34
60061;BME280;45933;51.336;12.612;2023-06-14T06:22:58;100031.84;;;17.10;49.23
60061;BME280;45933;51.336;12.612;2023-06-14T06:25:25;100029.78;;;17.18;49.75
60061;BME280;45933;51.336;12.612;2023-06-14T06:27:52;100034.06;;;17.22;49.55
60061;BME280;45933;51.336;12.612;2023-06-14T06:30:18;100031.97;;;17.32;49.63
60061;BME280;45933;51.336;12.612;2023-06-14T06:32:44;100033.59;;;17.36;49.22
60061;BME280;45933;51.336;12.612;2023-06-14T06:35:09;100040.47;;;17.40;49.12
60061;BME280;45933;51.336;12.612;2023-06-14T06:37:36;100044.50;;;17.50;48.98
60061;BME280;45933;51.336;12.612;2023-06-14T06:40:01;100043.41;;;17.57;48.86
60061;BME280;45933;51.336;12.612;2023-06-14T06:42:29;100045.81;;;17.63;49.16
60061;BME280;45933;51.336;12.612;2023-06-14T06:44:54;100048.97;;;17.74;48.57
60061;BME280;45933;51.336;12.612;2023-06-14T06:47:19;100040.91;;;17.79;48.26
60061;BME280;45933;51.336;12.612;2023-06-14T06:49:45;100048.34;;;17.91;48.26
60061;BME280;45933;51.336;12.612;2023-06-14T06:52:10;100046.47;;;17.95;47.66
60061;BME280;45933;51.336;12.612;2023-06-14T06:54:35;100049.56;;;18.06;47.23
60061;BME280;45933;51.336;12.612;2023-06-14T06:57:01;100043.16;;;18.13;46.89
60061;BME280;45933;51.336;12.612;2023-06-14T06:59:27;100039.31;;;18.22;46.98
60061;BME280;45933;51.336;12.612;2023-06-14T07:01:52;100051.25;;;18.32;46.80
60061;BME280;45933;51.336;12.612;2023-06-14T07:04:17;100049.97;;;18.42;46.85
60061;BME280;45933;51.336;12.612;2023-06-14T07:06:43;100052.28;;;18.51;46.64
60061;BME280;45933;51.336;12.612;2023-06-14T07:09:09;100047.44;;;18.63;46.63
60061;BME280;45933;51.336;12.612;2023-06-14T07:11:41;100051.22;;;18.79;47.02
60061;BME280;45933;51.336;12.612;2023-06-14T07:14:07;100056.06;;;18.90;47.07
60061;BME280;45933;51.336;12.612;2023-06-14T07:16:32;100058.16;;;19.03;46.69
60061;BME280;45933;51.336;12.612;2023-06-14T07:18:57;100060.38;;;19.14;45.80
60061;BME280;45933;51.336;12.612;2023-06-14T07:21:23;100064.31;;;19.24;45.52
60061;BME280;45933;51.336;12.612;2023-06-14T07:23:48;100057.72;;;19.34;45.93
60061;BME280;45933;51.336;12.612;2023-06-14T07:26:13;100063.50;;;19.44;45.36
60061;BME280;45933;51.336;12.612;2023-06-14T07:28:39;100062.06;;;19.57;45.36
60061;BME280;45933;51.336;12.612;2023-06-14T07:31:04;100059.09;;;19.65;45.06
60061;BME280;45933;51.336;12.612;2023-06-14T07:33:29;100067.38;;;19.78;45.13
60061;BME280;45933;51.336;12.612;2023-06-14T07:35:55;100063.41;;;19.88;45.37
60061;BME280;45933;51.336;12.612;2023-06-14T07:38:20;100065.41;;;20.02;45.27
60061;BME280;45933;51.336;12.612;2023-06-14T07:40:45;100070.38;;;20.09;44.31
60061;BME280;45933;51.336;12.612;2023-06-14T07:43:10;100067.91;;;20.25;43.21
60061;BME280;45933;51.336;12.612;2023-06-14T07:45:37;100073.47;;;20.38;42.61
60061;BME280;45933;51.336;12.612;2023-06-14T07:48:02;100067.63;;;20.50;42.88
60061;BME280;45933;51.336;12.612;2023-06-14T07:50:28;100077.50;;;20.66;43.08
60061;BME280;45933;51.336;12.612;2023-06-14T07:52:53;100070.78;;;20.77;42.68
60061;BME280;45933;51.336;12.612;2023-06-14T07:55:19;100068.31;;;20.92;42.12
60061;BME280;45933;51.336;12.612;2023-06-14T07:57:44;100068.53;;;21.06;42.03
60061;BME280;45933;51.336;12.612;2023-06-14T08:00:10;100064.50;;;21.16;41.32
60061;BME280;45933;51.336;12.612;2023-06-14T08:02:39;100061.22;;;21.28;41.27
60061;BME280;45933;51.336;12.612;2023-06-14T08:05:05;100059.00;;;21.38;41.01
60061;BME280;45933;51.336;12.612;2023-06-14T08:07:30;100062.72;;;21.51;40.91
60061;BME280;45933;51.336;12.612;2023-06-14T08:09:55;100065.00;;;21.59;40.29
60061;BME280;45933;51.336;12.612;2023-06-14T08:12:20;100065.22;;;21.72;40.85
60061;BME280;45933;51.336;12.612;2023-06-14T08:14:46;100061.38;;;21.77;39.41
60061;BME280;45933;51.336;12.612;2023-06-14T08:17:11;100059.91;;;21.89;39.28
60061;BME280;45933;51.336;12.612;2023-06-14T08:19:36;100066.28;;;22.02;39.38
60061;BME280;45933;51.336;12.612;2023-06-14T08:22:02;100059.66;;;22.11;38.78
60061;BME280;45933;51.336;12.612;2023-06-14T08:24:28;100068.00;;;22.21;38.31
60061;BME280;45933;51.336;12.612;2023-06-14T08:26:54;100061.25;;;22.31;37.88
60061;BME280;45933;51.336;12.612;2023-06-14T08:29:19;100064.94;;;22.44;37.92
60061;BME280;45933;51.336;12.612;2023-06-14T08:31:45;100067.94;;;22.54;37.94
60061;BME280;45933;51.336;12.612;2023-06-14T08:34:10;100060.94;;;22.68;37.23
60061;BME280;45933;51.336;12.612;2023-06-14T08:36:36;100060.72;;;22.87;37.14
60061;BME280;45933;51.336;12.612;2023-06-14T08:39:01;100061.28;;;22.94;36.14
60061;BME280;45933;51.336;12.612;2023-06-14T08:41:27;100067.50;;;23.09;36.23
60061;BME280;45933;51.336;12.612;2023-06-14T08:43:54;100064.06;;;23.22;35.76
60061;BME280;45933;51.336;12.612;2023-06-14T08:46:20;100066.09;;;23.33;35.39
60061;BME280;45933;51.336;12.612;2023-06-14T08:48:49;100056.53;;;23.45;34.81
60061;BME280;45933;51.336;12.612;2023-06-14T08:51:19;100057.59;;;23.57;35.19
60061;BME280;45933;51.336;12.612;2023-06-14T08:53:52;100058.44;;;23.73;34.60
60061;BME280;45933;51.336;12.612;2023-06-14T08:56:18;100058.72;;;23.83;33.88
60061;BME280;45933;51.336;12.612;2023-06-14T08:58:46;100063.78;;;24.02;33.82
60061;BME280;45933;51.336;12.612;2023-06-14T09:01:13;100064.09;;;24.11;33.90
60061;BME280;45933;51.336;12.612;2023-06-14T09:03:40;100065.78;;;24.26;34.12
60061;BME280;45933;51.336;12.612;2023-06-14T09:06:07;100072.66;;;24.45;33.80
60061;BME280;45933;51.336;12.612;2023-06-14T09:08:34;100071.97;;;24.56;33.66
60061;BME280;45933;51.336;12.612;2023-06-14T09:11:01;100069.38;;;24.68;33.38
60061;BME280;45933;51.336;12.612;2023-06-14T09:13:27;100073.81;;;24.82;33.64
60061;BME280;45933;51.336;12.612;2023-06-14T09:15:52;100067.72;;;24.94;33.09
60061;BME280;45933;51.336;12.612;2023-06-14T09:18:18;100069.47;;;25.08;32.83
60061;BME280;45933;51.336;12.612;2023-06-14T09:20:45;100054.28;;;25.23;32.62
60061;BME280;45933;51.336;12.612;2023-06-14T09:23:12;100066.91;;;25.34;32.31
60061;BME280;45933;51.336;12.612;2023-06-14T09:25:46;100061.81;;;25.43;32.21
60061;BME280;45933;51.336;12.612;2023-06-14T09:28:11;100068.00;;;25.56;32.78
60061;BME280;45933;51.336;12.612;2023-06-14T09:30:37;100063.75;;;25.67;31.07
60061;BME280;45933;51.336;12.612;2023-06-14T09:33:03;100075.09;;;25.83;32.08
60061;BME280;45933;51.336;12.612;2023-06-14T09:35:31;100062.28;;;25.88;30.26
60061;BME280;45933;51.336;12.612;2023-06-14T09:37:56;100075.13;;;25.96;30.62
60061;BME280;45933;51.336;12.612;2023-06-14T09:40:21;100063.91;;;26.03;30.94
60061;BME280;45933;51.336;12.612;2023-06-14T09:42:47;100070.31;;;26.01;30.41
60061;BME280;45933;51.336;12.612;2023-06-14T09:45:13;100076.94;;;26.08;30.58
60061;BME280;45933;51.336;12.612;2023-06-14T09:47:39;100072.88;;;26.15;30.33
60061;BME280;45933;51.336;12.612;2023-06-14T09:50:04;100066.59;;;26.16;29.59
60061;BME280;45933;51.336;12.612;2023-06-14T09:52:31;100074.78;;;26.26;30.13
60061;BME280;45933;51.336;12.612;2023-06-14T09:54:58;100063.56;;;26.33;29.45
60061;BME280;45933;51.336;12.612;2023-06-14T09:57:25;100067.41;;;26.29;29.07
60061;BME280;45933;51.336;12.612;2023-06-14T09:59:53;100054.22;;;26.52;29.31
60061;BME280;45933;51.336;12.612;2023-06-14T10:05:08;100069.81;;;26.71;29.86
60061;BME280;45933;51.336;12.612;2023-06-14T10:07:40;100064.97;;;26.76;28.46
60061;BME280;45933;51.336;12.612;2023-06-14T10:10:07;100058.72;;;26.88;28.34
60061;BME280;45933;51.336;12.612;2023-06-14T10:12:33;100072.09;;;26.88;28.25
60061;BME280;45933;51.336;12.612;2023-06-14T10:14:58;100062.88;;;26.92;28.40
60061;BME280;45933;51.336;12.612;2023-06-14T10:17:27;100063.59;;;27.07;28.68
60061;BME280;45933;51.336;12.612;2023-06-14T10:20:42;100060.75;;;27.21;29.04
60061;BME280;45933;51.336;12.612;2023-06-14T10:23:20;100065.19;;;27.33;28.95
60061;BME280;45933;51.336;12.612;2023-06-14T10:25:49;100057.19;;;27.45;28.00
60061;BME280;45933;51.336;12.612;2023-06-14T10:28:19;100055.16;;;27.59;27.94
60061;BME280;45933;51.336;12.612;2023-06-14T10:31:09;100059.53;;;27.84;28.96
60061;BME280;45933;51.336;12.612;2023-06-14T10:39:00;100059.03;;;28.13;27.73
60061;BME280;45933;51.336;12.612;2023-06-14T10:41:29;100060.25;;;28.09;26.74
60061;BME280;45933;51.336;12.612;2023-06-14T10:44:31;100065.03;;;28.28;27.55
60061;BME280;45933;51.336;12.612;2023-06-14T10:47:00;100058.06;;;28.25;26.69
60061;BME280;45933;51.336;12.612;2023-06-14T10:49:39;100052.59;;;28.27;27.32
60061;BME280;45933;51.336;12.612;2023-06-14T10:52:14;100053.97;;;28.44;27.27
60061;BME280;45933;51.336;12.612;2023-06-14T10:55:03;100054.94;;;28.54;27.67
60061;BME280;45933;51.336;12.612;2023-06-14T10:57:30;100055.50;;;28.57;26.27
60061;BME280;45933;51.336;12.612;2023-06-14T10:59:58;100052.59;;;28.60;27.11
60061;BME280;45933;51.336;12.612;2023-06-14T11:05:27;100057.31;;;28.79;26.24
60061;BME280;45933;51.336;12.612;2023-06-14T11:10:43;100053.59;;;29.03;26.64
60061;BME280;45933;51.336;12.612;2023-06-14T11:13:09;100051.91;;;29.02;26.85
60061;BME280;45933;51.336;12.612;2023-06-14T11:15:38;100036.00;;;29.10;25.88
60061;BME280;45933;51.336;12.612;2023-06-14T11:18:08;100033.94;;;29.13;25.93
60061;BME280;45933;51.336;12.612;2023-06-14T11:20:35;100026.59;;;29.15;26.37
60061;BME280;45933;51.336;12.612;2023-06-14T11:23:02;100016.31;;;29.21;26.10
60061;BME280;45933;51.336;12.612;2023-06-14T11:25:27;100024.59;;;29.29;25.57
60061;BME280;45933;51.336;12.612;2023-06-14T11:27:56;100008.41;;;29.40;25.45
60061;BME280;45933;51.336;12.612;2023-06-14T11:30:22;100005.34;;;29.44;25.77
60061;BME280;45933;51.336;12.612;2023-06-14T11:32:49;100022.06;;;29.48;26.03
60061;BME280;45933;51.336;12.612;2023-06-14T11:35:16;100021.53;;;29.33;25.04
60061;BME280;45933;51.336;12.612;2023-06-14T11:37:42;100016.69;;;29.27;24.83
60061;BME280;45933;51.336;12.612;2023-06-14T11:40:10;100011.69;;;29.23;25.71
60061;BME280;45933;51.336;12.612;2023-06-14T11:42:37;100011.38;;;29.16;25.66
60061;BME280;45933;51.336;12.612;2023-06-14T11:45:03;100013.06;;;29.17;25.77
60061;BME280;45933;51.336;12.612;2023-06-14T11:47:34;99998.72;;;29.07;25.17
60061;BME280;45933;51.336;12.612;2023-06-14T11:50:00;100002.84;;;29.11;25.34
60061;BME280;45933;51.336;12.612;2023-06-14T11:52:26;100001.19;;;29.20;25.85
60061;BME280;45933;51.336;12.612;2023-06-14T11:54:52;100004.09;;;29.28;25.45
60061;BME280;45933;51.336;12.612;2023-06-14T11:57:18;100001.59;;;29.36;25.42
60061;BME280;45933;51.336;12.612;2023-06-14T11:59:44;100000.56;;;29.48;25.30
60061;BME280;45933;51.336;12.612;2023-06-14T12:02:14;99993.03;;;29.63;25.02
60061;BME280;45933;51.336;12.612;2023-06-14T12:04:43;99994.53;;;29.77;25.79
60061;BME280;45933;51.336;12.612;2023-06-14T12:07:16;99987.13;;;29.90;25.47
60061;BME280;45933;51.336;12.612;2023-06-14T12:12:21;99992.56;;;30.09;25.09
60061;BME280;45933;51.336;12.612;2023-06-14T12:14:47;99994.94;;;30.03;24.79
60061;BME280;45933;51.336;12.612;2023-06-14T12:17:12;99997.63;;;30.03;24.80
60061;BME280;45933;51.336;12.612;2023-06-14T12:19:41;99995.19;;;29.90;24.93
60061;BME280;45933;51.336;12.612;2023-06-14T12:22:09;100000.31;;;29.72;24.96
60061;BME280;45933;51.336;12.612;2023-06-14T12:24:35;99993.94;;;29.52;25.23
60061;BME280;45933;51.336;12.612;2023-06-14T12:27:00;99987.59;;;29.32;25.85
60061;BME280;45933;51.336;12.612;2023-06-14T12:29:28;99985.84;;;29.22;26.80
60061;BME280;45933;51.336;12.612;2023-06-14T12:31:53;99993.13;;;28.99;26.70
60061;BME280;45933;51.336;12.612;2023-06-14T12:34:21;100000.09;;;28.90;26.74
60061;BME280;45933;51.336;12.612;2023-06-14T12:36:46;99999.63;;;28.74;26.45
60061;BME280;45933;51.336;12.612;2023-06-14T12:39:12;100003.13;;;28.53;26.65
60061;BME280;45933;51.336;12.612;2023-06-14T12:41:38;99996.56;;;28.35;26.94
60061;BME280;45933;51.336;12.612;2023-06-14T12:44:03;100003.63;;;28.13;26.89
60061;BME280;45933;51.336;12.612;2023-06-14T12:46:31;100000.09;;;27.91;27.43
60061;BME280;45933;51.336;12.612;2023-06-14T12:48:57;100006.78;;;27.74;28.03
60061;BME280;45933;51.336;12.612;2023-06-14T12:51:22;100002.13;;;27.65;28.23
60061;BME280;45933;51.336;12.612;2023-06-14T12:53:48;100012.91;;;27.52;28.60
60061;BME280;45933;51.336;12.612;2023-06-14T12:56:14;100008.38;;;27.41;28.45
60061;BME280;45933;51.336;12.612;2023-06-14T12:58:41;99999.94;;;27.23;28.65
60061;BME280;45933;51.336;12.612;2023-06-14T13:01:06;100004.78;;;27.18;29.02
60061;BME280;45933;51.336;12.612;2023-06-14T13:03:31;100004.63;;;27.08;29.08
60061;BME280;45933;51.336;12.612;2023-06-14T13:05:58;100004.44;;;26.99;29.16